14°C Temp
12°C Dewpoint
88% Humidity
Temperature
3 KM/H
2 MPH
2 KTS
Calm
Due North

Wind Speed
Mostly Cloudy
Conditions
Pressure 1012.92 (hPa) - 29.91 (in)
Visibility 6.2 (mi) - 10.0 (km)

Current Conditions
LIRQ
Location 70(km)
Metar :LIRQ 041250Z VRB02KT 9999 BKN040 14/12 Q1013
Sun 4th December 14:50 pm

Airport
  Metar Aviation API Data Provided by https://www.checkwx.com/ PHP scripts by weather34.com ©2022